SBOSBO KEF / BIKF
Speedbird OnlineSpeedbird Online KEF / BIKF

Keflavik International Airport
07:37 4°C

Location Keflavik, Iceland
Latitude: 63.985000610352
Longitude: -22.605600357056
Web Airport Website | Wikipedia
Altitude 52 Meter / 171 Feet
Distance 1,915 KM / 1,190 Miles
from London.
Time Zone UTC 0 hours (Atlantic/Reykjavik)
Codes IATA: KEF
ICAO: BIKF
Currency £1 equals ISK 161.18
Runways
RunwayLength (m)Surface
013054Asphalt
103065Asphalt
193054Asphalt
283065Asphalt
Radio
TypeDescriptionFrequency
A/GAIR GND131.9
APPAPP119.3
ATISATIS128.3
DEPDEP119.3
GNDGND121.9
OPSBASE OPS129
PMSVPMSV METRO125
TWRTWR118.3
Live ATC
METAR BIKF 060700Z 32004KT CAVOK 04/03 Q0986
TAF TAF BIKF 060456Z 0606/0706 01008KT 9999 SCT025 BKN035 TX07/0615Z TN03/0706Z BECMG 0614/0616 01018KT
Weather As Of 06 Oct 2022 07:36
Description Clear sky
Wind 7 km/h from North-West (320°)
Cloud Cover 0%
Precipitation Rain: none, Snow: none
Sunrise 07:53
Sunset 18:43
Lounges Icelandair Saga Lounge , Top floor between gates A and C
Rotations During the last 90 days there were
59 flights from LHR
58 flights to LHR
1 flights to MEX


© 2017-2022 Speedbird Online